sensor_id;sensor_type;location;lat;lon;timestamp;pressure;altitude;pressure_sealevel;temperature;humidity
78835;BME280;68187;42.682;23.352;2024-02-21T00:02:24;95829.34;;;5.34;76.26
78835;BME280;68187;42.682;23.352;2024-02-21T00:04:51;95818.09;;;5.34;76.65
78835;BME280;68187;42.682;23.352;2024-02-21T00:07:18;95823.47;;;5.39;76.75
78835;BME280;68187;42.682;23.352;2024-02-21T00:09:45;95817.63;;;5.37;76.48
78835;BME280;68187;42.682;23.352;2024-02-21T00:12:12;95819.25;;;5.38;76.35
78835;BME280;68187;42.682;23.352;2024-02-21T00:14:41;95822.06;;;5.36;76.44
78835;BME280;68187;42.682;23.352;2024-02-21T00:17:09;95814.84;;;5.32;76.60
78835;BME280;68187;42.682;23.352;2024-02-21T00:19:35;95816.38;;;5.21;76.87
78835;BME280;68187;42.682;23.352;2024-02-21T00:22:02;95819.16;;;5.26;76.66
78835;BME280;68187;42.682;23.352;2024-02-21T00:24:29;95805.31;;;5.19;77.17
78835;BME280;68187;42.682;23.352;2024-02-21T00:26:56;95807.28;;;5.24;76.86
78835;BME280;68187;42.682;23.352;2024-02-21T00:29:23;95818.13;;;5.27;76.78
78835;BME280;68187;42.682;23.352;2024-02-21T00:31:51;95816.31;;;5.28;76.73
78835;BME280;68187;42.682;23.352;2024-02-21T00:34:18;95808.16;;;5.18;77.02
78835;BME280;68187;42.682;23.352;2024-02-21T00:36:45;95809.72;;;5.19;77.14
78835;BME280;68187;42.682;23.352;2024-02-21T00:39:12;95811.41;;;5.13;77.55
78835;BME280;68187;42.682;23.352;2024-02-21T00:41:39;95810.31;;;5.21;77.31
78835;BME280;68187;42.682;23.352;2024-02-21T00:44:05;95800.59;;;5.28;76.87
78835;BME280;68187;42.682;23.352;2024-02-21T00:46:32;95804.50;;;5.19;77.32
78835;BME280;68187;42.682;23.352;2024-02-21T00:49:01;95798.25;;;5.20;77.20
78835;BME280;68187;42.682;23.352;2024-02-21T00:51:27;95803.69;;;5.18;77.05
78835;BME280;68187;42.682;23.352;2024-02-21T00:53:54;95800.00;;;5.26;76.82
78835;BME280;68187;42.682;23.352;2024-02-21T00:56:21;95794.03;;;5.19;76.96
78835;BME280;68187;42.682;23.352;2024-02-21T00:58:48;95791.16;;;5.27;76.91
78835;BME280;68187;42.682;23.352;2024-02-21T01:01:21;95797.97;;;5.28;76.98
78835;BME280;68187;42.682;23.352;2024-02-21T01:03:49;95790.34;;;5.26;76.97
78835;BME280;68187;42.682;23.352;2024-02-21T01:06:18;95787.50;;;5.28;76.85
78835;BME280;68187;42.682;23.352;2024-02-21T01:08:45;95783.28;;;5.27;76.89
78835;BME280;68187;42.682;23.352;2024-02-21T01:11:12;95779.22;;;5.31;76.59
78835;BME280;68187;42.682;23.352;2024-02-21T01:13:39;95780.88;;;5.25;76.91
78835;BME280;68187;42.682;23.352;2024-02-21T01:16:06;95777.66;;;5.23;77.28
78835;BME280;68187;42.682;23.352;2024-02-21T01:18:33;95775.34;;;5.15;77.40
78835;BME280;68187;42.682;23.352;2024-02-21T01:21:01;95767.66;;;5.20;77.40
78835;BME280;68187;42.682;23.352;2024-02-21T01:23:29;95776.75;;;5.11;77.98
78835;BME280;68187;42.682;23.352;2024-02-21T01:25:56;95768.88;;;5.18;77.54
78835;BME280;68187;42.682;23.352;2024-02-21T01:28:23;95771.38;;;5.31;77.21
78835;BME280;68187;42.682;23.352;2024-02-21T01:30:50;95772.53;;;5.35;76.92
78835;BME280;68187;42.682;23.352;2024-02-21T01:33:17;95763.72;;;5.29;77.02
78835;BME280;68187;42.682;23.352;2024-02-21T01:35:44;95755.66;;;5.31;77.10
78835;BME280;68187;42.682;23.352;2024-02-21T01:38:12;95759.66;;;5.33;77.33
78835;BME280;68187;42.682;23.352;2024-02-21T01:40:41;95764.84;;;5.40;76.93
78835;BME280;68187;42.682;23.352;2024-02-21T01:43:16;95755.88;;;5.29;76.77
78835;BME280;68187;42.682;23.352;2024-02-21T01:45:43;95756.16;;;5.39;76.43
78835;BME280;68187;42.682;23.352;2024-02-21T01:48:13;95752.75;;;5.39;75.94
78835;BME280;68187;42.682;23.352;2024-02-21T01:50:40;95755.34;;;5.39;76.41
78835;BME280;68187;42.682;23.352;2024-02-21T01:53:07;95751.31;;;5.43;76.26
78835;BME280;68187;42.682;23.352;2024-02-21T01:55:34;95747.00;;;5.48;75.80
78835;BME280;68187;42.682;23.352;2024-02-21T01:58:03;95753.06;;;5.49;75.69
78835;BME280;68187;42.682;23.352;2024-02-21T02:00:31;95746.50;;;5.40;75.53
78835;BME280;68187;42.682;23.352;2024-02-21T02:02:58;95737.47;;;5.36;75.83
78835;BME280;68187;42.682;23.352;2024-02-21T02:05:25;95756.75;;;5.41;75.74
78835;BME280;68187;42.682;23.352;2024-02-21T02:07:52;95744.88;;;5.39;75.43
78835;BME280;68187;42.682;23.352;2024-02-21T02:10:19;95754.50;;;5.45;75.04
78835;BME280;68187;42.682;23.352;2024-02-21T02:12:46;95756.31;;;5.44;75.09
78835;BME280;68187;42.682;23.352;2024-02-21T02:15:15;95755.75;;;5.42;75.03
78835;BME280;68187;42.682;23.352;2024-02-21T02:17:42;95744.47;;;5.42;74.64
78835;BME280;68187;42.682;23.352;2024-02-21T02:20:09;95747.44;;;5.45;75.04
78835;BME280;68187;42.682;23.352;2024-02-21T02:22:37;95749.47;;;5.43;74.86
78835;BME280;68187;42.682;23.352;2024-02-21T02:25:07;95736.03;;;5.40;74.93
78835;BME280;68187;42.682;23.352;2024-02-21T02:27:41;95742.72;;;5.36;74.83
78835;BME280;68187;42.682;23.352;2024-02-21T02:30:11;95732.88;;;5.31;75.36
78835;BME280;68187;42.682;23.352;2024-02-21T02:32:38;95736.34;;;5.25;75.41
78835;BME280;68187;42.682;23.352;2024-02-21T02:35:05;95730.91;;;5.27;75.47
78835;BME280;68187;42.682;23.352;2024-02-21T02:37:32;95733.16;;;5.23;75.65
78835;BME280;68187;42.682;23.352;2024-02-21T02:39:59;95728.38;;;5.20;75.77
78835;BME280;68187;42.682;23.352;2024-02-21T02:42:27;95728.31;;;5.27;75.46
78835;BME280;68187;42.682;23.352;2024-02-21T02:44:54;95731.03;;;5.32;75.39
78835;BME280;68187;42.682;23.352;2024-02-21T02:47:22;95730.38;;;5.18;75.81
78835;BME280;68187;42.682;23.352;2024-02-21T02:49:49;95725.47;;;5.28;75.49
78835;BME280;68187;42.682;23.352;2024-02-21T02:52:16;95736.16;;;5.27;75.78
78835;BME280;68187;42.682;23.352;2024-02-21T02:54:43;95736.28;;;5.32;75.46
78835;BME280;68187;42.682;23.352;2024-02-21T02:57:10;95735.50;;;5.31;75.82
78835;BME280;68187;42.682;23.352;2024-02-21T02:59:38;95739.72;;;5.32;75.71
78835;BME280;68187;42.682;23.352;2024-02-21T03:02:05;95740.28;;;5.34;75.87
78835;BME280;68187;42.682;23.352;2024-02-21T03:04:32;95734.28;;;5.34;75.84
78835;BME280;68187;42.682;23.352;2024-02-21T03:06:59;95737.03;;;5.39;75.61
78835;BME280;68187;42.682;23.352;2024-02-21T03:09:26;95741.59;;;5.43;75.47
78835;BME280;68187;42.682;23.352;2024-02-21T03:11:53;95739.38;;;5.47;75.36
78835;BME280;68187;42.682;23.352;2024-02-21T03:14:22;95746.78;;;5.50;75.30
78835;BME280;68187;42.682;23.352;2024-02-21T03:16:52;95750.00;;;5.52;75.29
78835;BME280;68187;42.682;23.352;2024-02-21T03:19:19;95743.50;;;5.54;75.11
78835;BME280;68187;42.682;23.352;2024-02-21T03:21:46;95748.63;;;5.49;75.21
78835;BME280;68187;42.682;23.352;2024-02-21T03:24:13;95754.34;;;5.40;75.40
78835;BME280;68187;42.682;23.352;2024-02-21T03:26:40;95753.47;;;5.46;75.15
78835;BME280;68187;42.682;23.352;2024-02-21T03:29:07;95743.88;;;5.40;75.15
78835;BME280;68187;42.682;23.352;2024-02-21T03:31:34;95750.78;;;5.34;75.39
78835;BME280;68187;42.682;23.352;2024-02-21T03:34:03;95753.97;;;5.36;75.70
78835;BME280;68187;42.682;23.352;2024-02-21T03:36:29;95758.19;;;5.37;75.56
78835;BME280;68187;42.682;23.352;2024-02-21T03:38:56;95755.94;;;5.41;75.21
78835;BME280;68187;42.682;23.352;2024-02-21T03:41:23;95758.28;;;5.49;75.00
78835;BME280;68187;42.682;23.352;2024-02-21T03:43:50;95766.72;;;5.51;74.58
78835;BME280;68187;42.682;23.352;2024-02-21T03:46:17;95770.97;;;5.52;74.59
78835;BME280;68187;42.682;23.352;2024-02-21T03:48:44;95767.38;;;5.46;74.96
78835;BME280;68187;42.682;23.352;2024-02-21T03:51:13;95770.34;;;5.50;74.88
78835;BME280;68187;42.682;23.352;2024-02-21T03:53:40;95774.44;;;5.46;75.15
78835;BME280;68187;42.682;23.352;2024-02-21T03:56:07;95772.25;;;5.43;74.89
78835;BME280;68187;42.682;23.352;2024-02-21T03:58:34;95765.84;;;5.39;74.28
78835;BME280;68187;42.682;23.352;2024-02-21T04:01:01;95765.72;;;5.34;74.92
78835;BME280;68187;42.682;23.352;2024-02-21T04:03:29;95768.53;;;5.32;75.46
78835;BME280;68187;42.682;23.352;2024-02-21T04:05:56;95763.94;;;5.28;75.62
78835;BME280;68187;42.682;23.352;2024-02-21T04:08:24;95769.56;;;5.31;75.57
78835;BME280;68187;42.682;23.352;2024-02-21T04:10:51;95758.53;;;5.23;75.67
78835;BME280;68187;42.682;23.352;2024-02-21T04:13:18;95761.88;;;5.30;75.30
78835;BME280;68187;42.682;23.352;2024-02-21T04:15:45;95762.06;;;5.35;75.30
78835;BME280;68187;42.682;23.352;2024-02-21T04:18:12;95765.09;;;5.32;75.22
78835;BME280;68187;42.682;23.352;2024-02-21T04:20:40;95761.63;;;5.38;74.91
78835;BME280;68187;42.682;23.352;2024-02-21T04:23:07;95760.97;;;5.42;74.88
78835;BME280;68187;42.682;23.352;2024-02-21T04:25:35;95761.19;;;5.41;74.69
78835;BME280;68187;42.682;23.352;2024-02-21T04:28:03;95762.78;;;5.42;74.65
78835;BME280;68187;42.682;23.352;2024-02-21T04:30:30;95761.78;;;5.43;74.36
78835;BME280;68187;42.682;23.352;2024-02-21T04:32:56;95759.75;;;5.45;74.42
78835;BME280;68187;42.682;23.352;2024-02-21T04:35:23;95753.53;;;5.39;74.23
78835;BME280;68187;42.682;23.352;2024-02-21T04:37:50;95761.63;;;5.38;74.26
78835;BME280;68187;42.682;23.352;2024-02-21T04:40:17;95764.09;;;5.33;74.35
78835;BME280;68187;42.682;23.352;2024-02-21T04:42:46;95764.50;;;5.30;74.65
78835;BME280;68187;42.682;23.352;2024-02-21T04:45:13;95757.69;;;5.29;74.57
78835;BME280;68187;42.682;23.352;2024-02-21T04:47:40;95757.47;;;5.30;74.65
78835;BME280;68187;42.682;23.352;2024-02-21T04:50:09;95761.31;;;5.28;74.59
78835;BME280;68187;42.682;23.352;2024-02-21T04:52:36;95763.50;;;5.31;73.96
78835;BME280;68187;42.682;23.352;2024-02-21T04:55:04;95767.34;;;5.28;74.67
78835;BME280;68187;42.682;23.352;2024-02-21T04:57:31;95766.78;;;5.26;74.67
78835;BME280;68187;42.682;23.352;2024-02-21T04:59:59;95760.16;;;5.24;74.93
78835;BME280;68187;42.682;23.352;2024-02-21T05:02:26;95759.91;;;5.25;74.93
78835;BME280;68187;42.682;23.352;2024-02-21T05:04:53;95765.16;;;5.25;75.09
78835;BME280;68187;42.682;23.352;2024-02-21T05:07:20;95758.69;;;5.28;75.04
78835;BME280;68187;42.682;23.352;2024-02-21T05:09:47;95766.78;;;5.26;75.01
78835;BME280;68187;42.682;23.352;2024-02-21T05:12:14;95764.97;;;5.27;75.02
78835;BME280;68187;42.682;23.352;2024-02-21T05:14:41;95768.34;;;5.27;75.01
78835;BME280;68187;42.682;23.352;2024-02-21T05:17:09;95775.56;;;5.32;75.03
78835;BME280;68187;42.682;23.352;2024-02-21T05:19:36;95779.00;;;5.32;75.50
78835;BME280;68187;42.682;23.352;2024-02-21T05:22:03;95785.91;;;5.27;75.40
78835;BME280;68187;42.682;23.352;2024-02-21T05:24:30;95786.28;;;5.30;75.67
78835;BME280;68187;42.682;23.352;2024-02-21T05:26:57;95780.38;;;5.35;75.15
78835;BME280;68187;42.682;23.352;2024-02-21T05:29:24;95780.53;;;5.40;75.31
78835;BME280;68187;42.682;23.352;2024-02-21T05:31:57;95779.75;;;5.39;75.27
78835;BME280;68187;42.682;23.352;2024-02-21T05:34:26;95778.16;;;5.38;75.27
78835;BME280;68187;42.682;23.352;2024-02-21T05:36:53;95779.94;;;5.20;76.03
78835;BME280;68187;42.682;23.352;2024-02-21T05:39:20;95779.94;;;5.20;75.80
78835;BME280;68187;42.682;23.352;2024-02-21T05:41:48;95787.50;;;5.28;75.88
78835;BME280;68187;42.682;23.352;2024-02-21T05:44:15;95788.66;;;5.32;75.75
78835;BME280;68187;42.682;23.352;2024-02-21T05:46:42;95783.81;;;5.35;75.66
78835;BME280;68187;42.682;23.352;2024-02-21T05:49:09;95789.91;;;5.29;75.80
78835;BME280;68187;42.682;23.352;2024-02-21T05:51:37;95789.06;;;5.35;75.70
78835;BME280;68187;42.682;23.352;2024-02-21T05:54:04;95785.19;;;5.38;75.57
78835;BME280;68187;42.682;23.352;2024-02-21T05:56:32;95800.84;;;5.44;75.33
78835;BME280;68187;42.682;23.352;2024-02-21T05:58:59;95794.59;;;5.45;74.92
78835;BME280;68187;42.682;23.352;2024-02-21T06:01:27;95798.66;;;5.41;74.87
78835;BME280;68187;42.682;23.352;2024-02-21T06:03:54;95799.63;;;5.47;74.67
78835;BME280;68187;42.682;23.352;2024-02-21T06:06:21;95792.56;;;5.47;74.00
78835;BME280;68187;42.682;23.352;2024-02-21T06:08:49;95807.00;;;5.56;74.11
78835;BME280;68187;42.682;23.352;2024-02-21T06:11:16;95804.72;;;5.60;73.86
78835;BME280;68187;42.682;23.352;2024-02-21T06:13:43;95812.25;;;5.50;74.42
78835;BME280;68187;42.682;23.352;2024-02-21T06:16:10;95813.41;;;5.60;74.73
78835;BME280;68187;42.682;23.352;2024-02-21T06:18:37;95810.47;;;5.68;74.03
78835;BME280;68187;42.682;23.352;2024-02-21T06:21:04;95815.66;;;5.75;73.05
78835;BME280;68187;42.682;23.352;2024-02-21T06:23:31;95817.63;;;5.79;72.38
78835;BME280;68187;42.682;23.352;2024-02-21T06:26:00;95817.56;;;5.86;72.29
78835;BME280;68187;42.682;23.352;2024-02-21T06:28:27;95817.06;;;5.96;72.21
78835;BME280;68187;42.682;23.352;2024-02-21T06:30:54;95816.56;;;5.87;71.73
78835;BME280;68187;42.682;23.352;2024-02-21T06:33:21;95824.34;;;5.94;71.37
78835;BME280;68187;42.682;23.352;2024-02-21T06:35:50;95825.59;;;5.91;71.92
78835;BME280;68187;42.682;23.352;2024-02-21T06:38:19;95827.13;;;5.99;71.57
78835;BME280;68187;42.682;23.352;2024-02-21T06:40:46;95833.69;;;5.90;71.57
78835;BME280;68187;42.682;23.352;2024-02-21T06:43:18;95837.81;;;5.79;72.13
78835;BME280;68187;42.682;23.352;2024-02-21T06:45:45;95832.66;;;5.91;71.42
78835;BME280;68187;42.682;23.352;2024-02-21T06:48:16;95842.44;;;6.02;71.52
78835;BME280;68187;42.682;23.352;2024-02-21T06:50:43;95850.16;;;6.15;71.36
78835;BME280;68187;42.682;23.352;2024-02-21T06:53:10;95846.44;;;6.22;71.51
78835;BME280;68187;42.682;23.352;2024-02-21T06:55:37;95843.44;;;6.19;70.73
78835;BME280;68187;42.682;23.352;2024-02-21T06:58:04;95845.56;;;6.28;70.79
78835;BME280;68187;42.682;23.352;2024-02-21T07:00:35;95843.00;;;6.40;70.18
78835;BME280;68187;42.682;23.352;2024-02-21T07:03:02;95839.03;;;6.49;70.02
78835;BME280;68187;42.682;23.352;2024-02-21T07:05:29;95837.88;;;6.45;69.94
78835;BME280;68187;42.682;23.352;2024-02-21T07:07:56;95845.34;;;6.60;69.17
78835;BME280;68187;42.682;23.352;2024-02-21T07:10:23;95842.78;;;6.71;68.23
78835;BME280;68187;42.682;23.352;2024-02-21T07:12:50;95848.69;;;6.67;68.21
78835;BME280;68187;42.682;23.352;2024-02-21T07:15:18;95844.25;;;6.67;68.61
78835;BME280;68187;42.682;23.352;2024-02-21T07:17:46;95846.78;;;6.74;69.47
78835;BME280;68187;42.682;23.352;2024-02-21T07:20:13;95845.16;;;6.73;68.89
78835;BME280;68187;42.682;23.352;2024-02-21T07:22:40;95842.09;;;6.76;69.13
78835;BME280;68187;42.682;23.352;2024-02-21T07:25:08;95846.91;;;6.79;69.46
78835;BME280;68187;42.682;23.352;2024-02-21T07:27:35;95842.25;;;6.81;69.36
78835;BME280;68187;42.682;23.352;2024-02-21T07:30:03;95844.63;;;6.82;69.27
78835;BME280;68187;42.682;23.352;2024-02-21T07:32:30;95852.84;;;6.74;68.73
78835;BME280;68187;42.682;23.352;2024-02-21T07:34:58;95848.66;;;6.85;68.77
78835;BME280;68187;42.682;23.352;2024-02-21T07:37:25;95844.53;;;6.89;68.77
78835;BME280;68187;42.682;23.352;2024-02-21T07:39:52;95847.97;;;6.89;68.89
78835;BME280;68187;42.682;23.352;2024-02-21T07:42:19;95857.25;;;6.92;68.99
78835;BME280;68187;42.682;23.352;2024-02-21T07:44:46;95848.56;;;6.91;68.71
78835;BME280;68187;42.682;23.352;2024-02-21T07:47:13;95849.03;;;7.00;68.22
78835;BME280;68187;42.682;23.352;2024-02-21T07:49:44;95846.19;;;7.01;68.40
78835;BME280;68187;42.682;23.352;2024-02-21T07:52:12;95845.53;;;7.06;67.83
78835;BME280;68187;42.682;23.352;2024-02-21T07:54:39;95837.84;;;7.04;67.94
78835;BME280;68187;42.682;23.352;2024-02-21T07:57:07;95843.69;;;7.18;67.53
78835;BME280;68187;42.682;23.352;2024-02-21T07:59:33;95841.31;;;7.16;67.92
78835;BME280;68187;42.682;23.352;2024-02-21T08:02:00;95833.84;;;7.02;67.77
78835;BME280;68187;42.682;23.352;2024-02-21T08:04:28;95837.44;;;7.19;68.32
78835;BME280;68187;42.682;23.352;2024-02-21T08:06:54;95838.13;;;7.26;67.61
78835;BME280;68187;42.682;23.352;2024-02-21T08:09:26;95840.09;;;7.31;67.08
78835;BME280;68187;42.682;23.352;2024-02-21T08:11:54;95843.28;;;7.33;67.09
78835;BME280;68187;42.682;23.352;2024-02-21T08:14:21;95841.00;;;7.36;67.60
78835;BME280;68187;42.682;23.352;2024-02-21T08:16:50;95850.03;;;7.40;66.83
78835;BME280;68187;42.682;23.352;2024-02-21T08:19:18;95840.44;;;7.46;66.79
78835;BME280;68187;42.682;23.352;2024-02-21T08:21:45;95837.94;;;7.62;66.77
78835;BME280;68187;42.682;23.352;2024-02-21T08:24:13;95837.69;;;7.52;66.98
78835;BME280;68187;42.682;23.352;2024-02-21T08:26:41;95841.50;;;7.56;66.26
78835;BME280;68187;42.682;23.352;2024-02-21T08:29:10;95830.38;;;7.77;66.68
78835;BME280;68187;42.682;23.352;2024-02-21T08:31:37;95833.56;;;8.03;65.69
78835;BME280;68187;42.682;23.352;2024-02-21T08:34:04;95829.56;;;8.00;64.54
78835;BME280;68187;42.682;23.352;2024-02-21T08:36:31;95829.66;;;8.17;64.95
78835;BME280;68187;42.682;23.352;2024-02-21T08:38:59;95829.19;;;8.20;63.69
78835;BME280;68187;42.682;23.352;2024-02-21T08:41:26;95826.56;;;8.20;63.62
78835;BME280;68187;42.682;23.352;2024-02-21T08:43:54;95826.47;;;8.26;63.31
78835;BME280;68187;42.682;23.352;2024-02-21T08:46:21;95829.34;;;8.53;63.09
78835;BME280;68187;42.682;23.352;2024-02-21T08:48:50;95829.59;;;8.51;61.89
78835;BME280;68187;42.682;23.352;2024-02-21T08:51:17;95834.31;;;8.49;61.76
78835;BME280;68187;42.682;23.352;2024-02-21T08:53:45;95828.19;;;8.60;61.76
78835;BME280;68187;42.682;23.352;2024-02-21T08:56:12;95827.28;;;8.55;61.87
78835;BME280;68187;42.682;23.352;2024-02-21T08:58:39;95827.84;;;8.57;62.05
78835;BME280;68187;42.682;23.352;2024-02-21T09:01:08;95826.47;;;8.54;62.47
78835;BME280;68187;42.682;23.352;2024-02-21T09:03:36;95829.66;;;8.56;61.70
78835;BME280;68187;42.682;23.352;2024-02-21T09:06:04;95834.72;;;8.58;61.95
78835;BME280;68187;42.682;23.352;2024-02-21T09:08:31;95824.50;;;8.61;61.75
78835;BME280;68187;42.682;23.352;2024-02-21T09:10:59;95832.50;;;8.67;61.54
78835;BME280;68187;42.682;23.352;2024-02-21T09:13:26;95838.50;;;8.50;60.56
78835;BME280;68187;42.682;23.352;2024-02-21T09:15:53;95838.09;;;8.42;61.16
78835;BME280;68187;42.682;23.352;2024-02-21T09:18:21;95828.78;;;8.51;61.40
78835;BME280;68187;42.682;23.352;2024-02-21T09:20:48;95836.94;;;8.49;61.04
78835;BME280;68187;42.682;23.352;2024-02-21T09:23:16;95828.69;;;8.46;60.59
78835;BME280;68187;42.682;23.352;2024-02-21T09:25:45;95832.41;;;8.33;61.50
78835;BME280;68187;42.682;23.352;2024-02-21T09:28:12;95837.19;;;8.36;61.23
78835;BME280;68187;42.682;23.352;2024-02-21T09:30:39;95825.28;;;8.22;61.54
78835;BME280;68187;42.682;23.352;2024-02-21T09:33:06;95835.25;;;8.32;62.02
78835;BME280;68187;42.682;23.352;2024-02-21T09:35:34;95832.28;;;8.28;61.25
78835;BME280;68187;42.682;23.352;2024-02-21T09:38:02;95833.66;;;8.31;61.69
78835;BME280;68187;42.682;23.352;2024-02-21T09:40:29;95832.16;;;8.35;61.86
78835;BME280;68187;42.682;23.352;2024-02-21T09:43:02;95839.78;;;8.48;61.74
78835;BME280;68187;42.682;23.352;2024-02-21T09:45:33;95826.41;;;8.49;61.24
78835;BME280;68187;42.682;23.352;2024-02-21T09:48:19;95836.69;;;8.79;60.83
78835;BME280;68187;42.682;23.352;2024-02-21T09:50:55;95824.91;;;8.98;59.63
78835;BME280;68187;42.682;23.352;2024-02-21T09:53:24;95833.63;;;8.99;59.87
78835;BME280;68187;42.682;23.352;2024-02-21T09:55:52;95823.59;;;9.12;59.06
78835;BME280;68187;42.682;23.352;2024-02-21T09:58:19;95823.53;;;9.24;58.96
78835;BME280;68187;42.682;23.352;2024-02-21T10:00:46;95824.94;;;9.31;59.04
78835;BME280;68187;42.682;23.352;2024-02-21T10:03:13;95825.03;;;9.37;58.97
78835;BME280;68187;42.682;23.352;2024-02-21T10:05:47;95821.59;;;9.36;58.11
78835;BME280;68187;42.682;23.352;2024-02-21T10:08:17;95817.56;;;9.00;57.75
78835;BME280;68187;42.682;23.352;2024-02-21T10:10:44;95822.03;;;8.83;57.57
78835;BME280;68187;42.682;23.352;2024-02-21T10:13:24;95812.06;;;9.02;57.66
78835;BME280;68187;42.682;23.352;2024-02-21T10:16:01;95805.72;;;8.86;57.71
78835;BME280;68187;42.682;23.352;2024-02-21T10:18:28;95811.84;;;9.03;57.66
78835;BME280;68187;42.682;23.352;2024-02-21T10:21:00;95809.28;;;9.08;57.46
78835;BME280;68187;42.682;23.352;2024-02-21T10:23:29;95807.38;;;9.20;56.36
78835;BME280;68187;42.682;23.352;2024-02-21T10:26:05;95809.84;;;9.27;55.36
78835;BME280;68187;42.682;23.352;2024-02-21T10:28:32;95798.28;;;9.45;55.55
78835;BME280;68187;42.682;23.352;2024-02-21T10:30:59;95791.94;;;9.62;54.35
78835;BME280;68187;42.682;23.352;2024-02-21T10:33:27;95780.59;;;9.62;53.78
78835;BME280;68187;42.682;23.352;2024-02-21T10:36:06;95780.50;;;9.57;52.87
78835;BME280;68187;42.682;23.352;2024-02-21T10:38:38;95777.41;;;9.60;52.44
78835;BME280;68187;42.682;23.352;2024-02-21T10:41:06;95766.78;;;9.55;52.73
78835;BME280;68187;42.682;23.352;2024-02-21T10:43:39;95755.09;;;9.67;52.71
78835;BME280;68187;42.682;23.352;2024-02-21T10:46:08;95755.28;;;10.04;52.70
78835;BME280;68187;42.682;23.352;2024-02-21T10:48:43;95754.00;;;10.50;52.20
78835;BME280;68187;42.682;23.352;2024-02-21T10:51:16;95748.63;;;10.66;50.37
78835;BME280;68187;42.682;23.352;2024-02-21T10:54:06;95740.41;;;10.90;50.56
78835;BME280;68187;42.682;23.352;2024-02-21T10:56:39;95724.88;;;11.35;48.81
78835;BME280;68187;42.682;23.352;2024-02-21T10:59:07;95726.75;;;11.81;47.89
78835;BME280;68187;42.682;23.352;2024-02-21T11:01:34;95713.00;;;12.46;47.25
78835;BME280;68187;42.682;23.352;2024-02-21T11:04:03;95720.19;;;12.86;47.33
78835;BME280;68187;42.682;23.352;2024-02-21T11:06:32;95708.28;;;13.44;44.76
78835;BME280;68187;42.682;23.352;2024-02-21T11:09:02;95707.19;;;13.65;43.38
78835;BME280;68187;42.682;23.352;2024-02-21T11:11:30;95698.47;;;13.29;41.37
78835;BME280;68187;42.682;23.352;2024-02-21T11:14:04;95694.06;;;13.99;40.91
78835;BME280;68187;42.682;23.352;2024-02-21T11:16:35;95697.41;;;14.29;40.05
78835;BME280;68187;42.682;23.352;2024-02-21T11:19:05;95696.59;;;14.34;39.10
78835;BME280;68187;42.682;23.352;2024-02-21T11:21:35;95697.38;;;14.78;38.85
78835;BME280;68187;42.682;23.352;2024-02-21T11:24:04;95701.09;;;14.77;36.08
78835;BME280;68187;42.682;23.352;2024-02-21T11:26:32;95691.84;;;14.16;36.64
78835;BME280;68187;42.682;23.352;2024-02-21T11:29:00;95698.06;;;13.96;37.92
78835;BME280;68187;42.682;23.352;2024-02-21T11:31:38;95687.44;;;13.96;38.51
78835;BME280;68187;42.682;23.352;2024-02-21T11:34:08;95680.91;;;14.38;38.69
78835;BME280;68187;42.682;23.352;2024-02-21T11:36:36;95686.13;;;13.94;37.04
78835;BME280;68187;42.682;23.352;2024-02-21T11:39:05;95682.56;;;12.99;39.23
78835;BME280;68187;42.682;23.352;2024-02-21T11:41:32;95689.72;;;12.73;39.81
78835;BME280;68187;42.682;23.352;2024-02-21T11:43:59;95687.47;;;12.15;41.74
78835;BME280;68187;42.682;23.352;2024-02-21T11:46:25;95686.41;;;12.16;42.70
78835;BME280;68187;42.682;23.352;2024-02-21T11:48:52;95678.97;;;12.03;42.97
78835;BME280;68187;42.682;23.352;2024-02-21T11:51:24;95674.94;;;11.90;42.99
78835;BME280;68187;42.682;23.352;2024-02-21T11:53:52;95673.84;;;11.76;44.45
78835;BME280;68187;42.682;23.352;2024-02-21T11:56:20;95669.38;;;11.40;44.56
78835;BME280;68187;42.682;23.352;2024-02-21T11:58:48;95669.72;;;11.12;45.83
78835;BME280;68187;42.682;23.352;2024-02-21T12:01:15;95674.22;;;11.11;45.38
78835;BME280;68187;42.682;23.352;2024-02-21T12:03:42;95672.00;;;10.98;45.38
78835;BME280;68187;42.682;23.352;2024-02-21T12:06:15;95673.00;;;10.55;46.01
78835;BME280;68187;42.682;23.352;2024-02-21T12:08:45;95674.03;;;10.54;45.64
78835;BME280;68187;42.682;23.352;2024-02-21T12:11:21;95680.41;;;10.58;46.15
78835;BME280;68187;42.682;23.352;2024-02-21T12:13:58;95676.44;;;10.56;46.24
78835;BME280;68187;42.682;23.352;2024-02-21T12:16:27;95661.19;;;10.36;47.86
78835;BME280;68187;42.682;23.352;2024-02-21T12:18:54;95666.31;;;10.48;48.16
78835;BME280;68187;42.682;23.352;2024-02-21T12:21:24;95669.25;;;10.25;49.00
78835;BME280;68187;42.682;23.352;2024-02-21T12:23:51;95665.72;;;10.14;49.10
78835;BME280;68187;42.682;23.352;2024-02-21T12:26:18;95661.84;;;10.22;49.13
78835;BME280;68187;42.682;23.352;2024-02-21T12:28:46;95655.56;;;10.28;48.96
78835;BME280;68187;42.682;23.352;2024-02-21T12:31:13;95659.81;;;10.07;49.15
78835;BME280;68187;42.682;23.352;2024-02-21T12:33:41;95653.28;;;9.88;48.83
78835;BME280;68187;42.682;23.352;2024-02-21T12:36:08;95647.25;;;9.92;49.64
78835;BME280;68187;42.682;23.352;2024-02-21T12:38:35;95651.78;;;9.97;49.60
78835;BME280;68187;42.682;23.352;2024-02-21T12:41:03;95648.44;;;10.06;48.65
78835;BME280;68187;42.682;23.352;2024-02-21T12:43:30;95652.81;;;9.96;48.46
78835;BME280;68187;42.682;23.352;2024-02-21T12:45:58;95653.22;;;10.10;48.10
78835;BME280;68187;42.682;23.352;2024-02-21T12:48:25;95645.03;;;10.06;47.74
78835;BME280;68187;42.682;23.352;2024-02-21T12:50:52;95645.78;;;10.01;48.28
78835;BME280;68187;42.682;23.352;2024-02-21T12:53:19;95649.56;;;9.89;49.49
78835;BME280;68187;42.682;23.352;2024-02-21T12:55:48;95648.22;;;9.86;50.25
78835;BME280;68187;42.682;23.352;2024-02-21T12:58:15;95652.88;;;9.79;51.58
78835;BME280;68187;42.682;23.352;2024-02-21T13:00:42;95639.75;;;9.84;51.68
78835;BME280;68187;42.682;23.352;2024-02-21T13:03:11;95642.91;;;9.60;54.36